Vicente Lorenzo

Jefe de ojeadores - Huesca
16 Abr 2028
Domingo
Continuar

Personalidad

Adaptabilidad (3) Ambición (18) Controversia (8) Lealtad (8) Presión (15) Profesionalismo (15) Deportividad (9) Temperamento (15)

Perfil

Estilo de dirección Democrático
Licencia Nacional A
Determinación 9
Gestión de personas 11
Motivación 4
Disciplina 12
Satisfacción laboral
100%
Fatiga
0%
Cargo Jefe de ojeadores
Salario 71.0K p/s
Contrato 14.03.2030

Rendimiento

Comportamiento Bueno
Efectividad del entrenamiento
34%
Desarrollo de jugadores
40%
Prevención de lesiones
50%
Implementación táctica
35%

Eventos recientes

Asistió a una reunión de captación ahora
Recomendó un objetivo de fichaje ahora
Asistió a una reunión de captación ahora
Asistió a una reunión de captación ahora
Evaluó a un jugador ahora
Evaluó a un jugador ahora
Evaluó a un jugador ahora
Evaluó a un jugador ahora

Actualmente siguiendo

207
Jugador Club Estado Habilidad Confianza Observado Última observación Último voto
Salvador Blopá Sporting CP Activo 129 / 124 40% 2 14.04.2028 -
Cheveyo Tsawa Club Brugge Activo 130 / 126 40% 1 14.04.2028 -
Pape Diong Westerlo Activo 118 / 128 40% 1 13.04.2028 -
Vojislav Jokić OFK Beograd Activo 112 / 112 40% 1 13.04.2028 -
Dylan Martínez River Plate Activo 88 / 104 40% 2 12.04.2028 -
Konta Ismaily Activo 113 / 109 40% 1 12.04.2028 -
Tobías Ramírez River Plate Activo 119 / 131 40% 1 12.04.2028 -
Juan Pablo García Atlético Tucumán Activo 84 / 95 40% 1 12.04.2028 -
Thiago Parga Huracán Activo 108 / 107 40% 3 11.04.2028 -
José Quevedo Tigres Activo 84 / 90 40% 1 11.04.2028 -
Jorge Salinas Racing Santander Activo 138 / 132 40% 1 08.04.2028 -
Victor Hernandez Santa Fe Activo 110 / 123 40% 3 07.04.2028 -
Jan Bürger Northampton Town Activo 111 / 120 40% 2 07.04.2028 -
Gabriel Sanchez Zamalek Activo 101 / 117 40% 1 07.04.2028 -
Manuel Pereyra Tigre Activo 99 / 99 40% 1 07.04.2028 -
Daniel Banjaqui Benfica Activo 118 / 123 40% 2 03.04.2028 -
Bernardo Lima Porto Activo 113 / 116 40% 1 03.04.2028 -
Josh King Newcastle United Activo 148 / 152 40% 2 19.03.2028 -
Martim Cunha Porto Activo 109 / 110 40% 1 19.03.2028 -
Lucas Høgsberg RC Strasbourg Activo 144 / 143 40% 2 17.03.2028 -
Ayden Heaven Portsmouth Activo 150 / 146 40% 1 15.03.2028 -
Josh Acheampong Everton Activo 149 / 151 40% 3 14.03.2028 -
Riquelme Thompson-Jones Accrington Stanley Activo 102 / 110 40% 2 14.03.2028 -
Adam Aznou Everton Activo 125 / 127 40% 1 12.03.2028 -
Josh Nichols Oldham Athletic Activo 124 / 131 40% 2 11.03.2028 -
Kiani Inge Groningen Activo 105 / 119 40% 1 08.03.2028 -
Melvin Vučenović Persson Atvidaberg Activo 100 / 94 40% 1 06.03.2028 -
Andrey Ivlev Nizhniy Novgorod Activo 104 / 119 40% 1 06.03.2028 -
Tiziano Delias Sarmiento Activo 94 / 99 40% 5 01.01.2028 -
Mao Hosoya Santos Negociando 134 / 135 67% 1 01.01.2028 -
Matěj Ryneš AS Nancy Negociando 122 / 123 67% 1 01.01.2028 -
Matías Zorzoli Newell's Old Boys Activo 103 / 105 40% 3 31.12.2027 -
Gonçalo Sobral Benfica Activo 85 / 104 40% 2 31.12.2027 -
Juan Manuel Centurión Independiente Activo 84 / 100 40% 3 30.12.2027 -
Jorge Sánchez Carabobo Activo 104 / 101 40% 1 30.12.2027 -
Franco Yennerich Talleres Activo 95 / 91 40% 3 29.12.2027 -
Tobías Mendoza Estudiantes Activo 86 / 99 40% 1 29.12.2027 -
Agustín Nogueira Barracas Central Activo 105 / 105 40% 2 28.12.2027 -
Diego Bolaños Veracruz Activo 80 / 90 40% 2 28.12.2027 -
Carlos Hernández Deportivo Riestra Activo 95 / 93 40% 1 25.12.2027 -
Dylan Moody Cheltenham Town Activo 112 / 131 40% 4 23.12.2027 -
Felipe Igón Racing Club Activo 94 / 111 40% 1 22.12.2027 -
Lautaro Vera Platense Activo 90 / 101 40% 1 22.12.2027 -
Enzo Romero Defensa y Justicia Activo 79 / 96 40% 1 21.12.2027 -
Benicio Romero Racing Club Activo 84 / 99 40% 1 21.12.2027 -
Emiliano Zacca Deportivo Riestra Activo 102 / 106 40% 1 20.12.2027 -
Jhusstyn Rentería Atletico Nacional Activo 88 / 101 40% 1 20.12.2027 -
Jack Wint Sibenik Activo 107 / 99 40% 5 18.12.2027 -
Axel Afonso Atlético Tucumán Activo 98 / 103 40% 2 15.12.2027 -
Joaquín Mancuso Vélez Activo 80 / 100 40% 1 12.12.2027 -
Martín Almeida Montevideo City Torque Activo 93 / 102 40% 1 11.12.2027 -
Jeremías Merlo Gimnasia La Plata Activo 123 / 124 40% 3 10.12.2027 -
Maren Kefas Plateau United Activo 100 / 100 40% 1 10.12.2027 -
Máximo Leguizamón Tigre Activo 91 / 102 40% 3 08.12.2027 -
Robert Cook Accrington Stanley Activo 100 / 114 40% 2 08.12.2027 -
Bautista Carboni Defensores Unidos Activo 99 / 108 40% 2 06.12.2027 -
Luis Yanes Real Cartagena Activo 101 / 97 40% 2 06.12.2027 -
Julian Eyestone Brentford Activo 127 / 137 40% 1 06.12.2027 -
Luis Mateus Atletico Bucaramanga Activo 80 / 92 40% 1 04.12.2027 -
Sam Proctor Salford City Activo 122 / 125 40% 1 02.12.2027 -
Vuk Draškić OFK Beograd Activo 102 / 125 40% 1 02.12.2027 -
Francisco Ventre Huracán Activo 80 / 92 40% 1 01.12.2027 -
Uriel Ramos Austria Wien Activo 96 / 105 40% 1 29.11.2027 -
Tomás Chetelain Estudiantes Activo 89 / 98 40% 1 29.11.2027 -
Felipe Pontoni Talleres Activo 88 / 100 40% 1 28.11.2027 -
Francisco Marchant Colo-Colo Activo 107 / 96 40% 2 25.11.2027 -
Joel Medina Independiente Activo 122 / 120 40% 1 25.11.2027 -
Tiago Pucciarelli IF Elfsborg Activo 101 / 101 40% 1 23.11.2027 -
Gerardo Díaz San Martín SJ Activo 102 / 102 40% 1 22.11.2027 -
Renato Ardissono San Lorenzo Activo 99 / 99 40% 1 18.11.2027 -
Martín D'Aurizio Huracán Activo 106 / 104 40% 1 16.11.2027 -
Matías Vilalta Giana Erminio Activo 82 / 96 40% 1 14.11.2027 -
Valentín Catalán Argentinos Juniors Activo 91 / 93 40% 2 13.11.2027 -
Thiago Cano Banfield Activo 99 / 99 40% 1 11.11.2027 -
Hassan Beja AFC Leopards Activo 82 / 87 40% 2 10.11.2027 -
Abdulrahman Hamisu Niger Tornadoes Activo 77 / 84 40% 1 10.11.2027 -
Agustín De la Cuesta Racing Activo 116 / 118 40% 2 09.11.2027 -
Tomás Aranda Boca Juniors Activo 105 / 124 40% 1 07.11.2027 -
Máximo Núñez Los Andes Activo 105 / 100 40% 1 05.11.2027 -
Ulíses López Barracas Central Activo 87 / 93 40% 1 05.11.2027 -
Mustapha Umar Kano Pillars Activo 98 / 87 40% 2 03.11.2027 -
Matias Siltanen Malmo FF Activo 133 / 121 40% 1 03.11.2027 -
Federico Bonilla River Plate Activo 84 / 99 40% 1 29.10.2027 -
Francisco Valdés Universidad Catolica Activo 77 / 88 40% 1 28.10.2027 -
Thiago Sabella Banfield Activo 99 / 105 40% 2 26.10.2027 -
Duván Córdoba Jaguares Activo 87 / 101 40% 1 20.10.2027 -
Máximo Casalnuovo Morón Activo 74 / 89 40% 1 18.10.2027 -
Ignacio Cardozo Vélez Activo 88 / 100 40% 1 17.10.2027 -
Luis Montilla Zorya Activo 91 / 97 40% 1 14.10.2027 -
Alfonso Álvarez Ferro Carril Oeste Activo 104 / 97 40% 1 13.10.2027 -
Tomás Parmo Independiente Activo 121 / 130 40% 1 10.10.2027 -
Sebastián Ramírez Aguilas Doradas Activo 110 / 115 40% 1 08.10.2027 -
Gabriel Lopes San Marcos de Arica Activo 94 / 104 40% 1 08.10.2027 -
Joel Orlando Almagro Activo 113 / 122 40% 1 05.10.2027 -
Ignacio Coscio Huracán Activo 87 / 95 40% 1 17.09.2027 -
Carlos Nemocón Santa Fe Activo 97 / 100 40% 1 16.09.2027 -
Thiago Nahuel Independiente Activo 82 / 95 40% 1 16.09.2027 -
Emanuel Bonda Argentinos Juniors Activo 96 / 88 40% 1 10.09.2027 -
Lisandro Tejada San Martín SJ Activo 85 / 98 40% 1 10.09.2027 -
Alex Amaefula Kun Khalifat Activo 82 / 91 40% 1 01.09.2027 -
Didier Dawson Envigado Activo 110 / 115 40% 1 09.08.2027 -
Luka Andrade Montevideo City Torque Activo 100 / 108 40% 1 09.08.2027 -
Simón Pinto Huachipato Activo 112 / 102 40% 1 12.07.2027 -
José Pachuca Puebla Activo 97 / 110 40% 2 02.06.2027 -
Bongani Jali Free State Stars Activo 78 / 103 40% 1 02.06.2027 -
Johannes Eggestein Orlando City Negociando 125 / 125 68% 1 01.06.2027 -
Marc Cardona Andorra Activo 124 / 114 51% 1 01.06.2027 -
Leo Román Deportivo La Coruña Activo 151 / 158 40% 14 29.05.2027 -
Jordan Amissah Burton Albion Activo 100 / 99 40% 5 29.05.2027 -
George Wickens Lincoln City Activo 110 / 123 40% 3 28.05.2027 -
Sergio Barlocco Trento Activo 112 / 109 40% 1 27.05.2027 -
Daniel Awuni Aduana Stars Activo 76 / 84 40% 1 27.05.2027 -
Caleb Yirenkyi Coventry City Activo 140 / 143 40% 1 27.05.2027 -
Joe Gelhardt Hull City Activo 135 / 129 40% 1 26.05.2027 -
Myles Roberts Cambridge United Activo 110 / 102 40% 2 24.05.2027 -
Murphy Cooper Plymouth Argyle Activo 112 / 118 40% 3 23.05.2027 -
Lander Astiazarán Real Sociedad Activo 104 / 112 67% 3 23.05.2027 -
Nikolaus Wurmbrand Girona Activo 111 / 126 40% 1 23.05.2027 -
Cesare Galeotti Trapani Activo 116 / 109 40% 1 22.05.2027 -
Leo Castledine Middlesbrough Activo 123 / 126 40% 2 21.05.2027 -
Alex Lowry Wycombe Wanderers Activo 126 / 112 40% 1 19.05.2027 -
Ethan Galbraith Swansea City Activo 123 / 139 40% 1 19.05.2027 -
Héctor Holguín Morelia Activo 129 / 123 40% 3 18.05.2027 -
Rocco Ríos Novo Sivasspor Activo 111 / 116 40% 6 18.05.2027 -
Will Dennis Milton Keynes Dons Activo 113 / 110 40% 3 16.05.2027 -
Ivor Pandur Hull City Activo 137 / 123 40% 1 16.05.2027 -
Izan Merino Málaga Activo 128 / 124 40% 2 15.05.2027 -
Jenson Jones Walsall Activo 99 / 105 40% 1 15.05.2027 -
Anthony Patterson Wrexham Activo 128 / 124 40% 4 14.05.2027 -
Richard Ledezma Guadalajara Activo 144 / 131 40% 1 11.05.2027 -
Filippo Manfrin Arzignano Activo 95 / 103 40% 1 09.05.2027 -
Radek Vítek Middlesbrough Activo 139 / 148 40% 4 08.05.2027 -
Diego Enríquez Sporting Cristal Activo 137 / 135 40% 1 08.05.2027 -
João Teixeira Porto Activo 115 / 109 40% 1 07.05.2027 -
Monty Batlhabane Polokwane City Activo 89 / 103 40% 1 07.05.2027 -
Jack Rudoni Coventry City Activo 131 / 137 40% 1 05.05.2027 -
Manuel Roffo Hajduk Split Activo 135 / 128 40% 4 03.05.2027 -
João Gonçalves Oliveirense Activo 110 / 121 40% 3 03.05.2027 -
Josh Keeley Luton Town Activo 120 / 130 40% 2 02.05.2027 -
Elia Caprile Cagliari Activo 147 / 151 40% 4 30.04.2027 -
Davide Mastrantonio Latina Activo 100 / 97 40% 1 30.04.2027 -
Jan Bačkovský Dukla Prague Activo 106 / 114 40% 1 28.04.2027 -
Guillaume Restes Toulouse FC Activo 133 / 138 40% 2 27.04.2027 -
Cezary Miszta Rio Ave Activo 130 / 139 40% 1 25.04.2027 -
Manu Rodríguez Gijón Activo 102 / 110 40% 1 23.04.2027 -
Lovro Zvonarek Estrela da Amadora Activo 112 / 125 40% 1 21.04.2027 -
Derensili Sanches Fernandes Huddersfield Town Activo 130 / 117 40% 1 20.04.2027 -
Omar Campos Cruz Azul Activo 117 / 122 40% 1 20.04.2027 -
Adriel Torreense Activo 120 / 123 40% 2 18.04.2027 -
Elia Boseggia Novara Activo 112 / 111 40% 1 16.04.2027 -
Lucas Lavagnino Valladolid Activo 123 / 114 40% 2 14.04.2027 -
Oufa Shobeir MC Alger Activo 131 / 134 40% 1 13.04.2027 -
Gonçalo Tabuaço Maritimo Activo 111 / 102 40% 1 13.04.2027 -
Jonmi Magunagoitia Eibar Activo 141 / 134 40% 3 12.04.2027 -
Francisco González Tijuana Activo 106 / 114 40% 1 12.04.2027 -
Yael Padilla Tijuana Activo 108 / 122 40% 2 11.04.2027 -
Oscar Schwartau Norwich City Activo 123 / 129 40% 1 11.04.2027 -
Matteo Rizzo Cosenza Activo 107 / 106 40% 1 11.04.2027 -
João Valido Chaves Activo 126 / 110 40% 2 09.04.2027 -
David Larrubia Málaga Activo 145 / 125 40% 2 07.04.2027 -
Finn Azaz Southampton Activo 138 / 124 40% 1 07.04.2027 -
Gladson Amoah Liberty Professionals Activo 100 / 99 40% 2 06.04.2027 -
Leo Kokubo Sint-Truiden Activo 115 / 121 40% 1 02.04.2027 -
Jeremy Márquez Cruz Azul Activo 133 / 134 40% 1 02.04.2027 -
Andrés Martín Racing Santander Activo 134 / 138 40% 1 02.04.2027 -
Andreas Jungdal Westerlo Activo 134 / 128 40% 1 31.03.2027 -
Gabriele Bertolini Vicenza Activo 98 / 109 40% 1 31.03.2027 -
Egoitz Arana Real Sociedad Activo 102 / 113 67% 3 27.03.2027 Observar
Igor Nikić Mirandés Activo 129 / 118 40% 2 26.03.2027 -
Alexandr Koryakin Krasnodar Activo 121 / 116 40% 1 22.03.2027 -
William Rovida Pro Patria Activo 93 / 101 40% 1 22.03.2027 -
Sorriso Famalicao Activo 141 / 129 40% 1 17.03.2027 -
Peter Amidu Acquah Asante Kotoko Activo 85 / 86 40% 1 14.03.2027 -
Bilal Bayazıt Kayserispor Activo 112 / 129 40% 1 11.03.2027 -
Juan Diego Castillo Vitoria Guimaraes Activo 121 / 125 40% 1 10.03.2027 -
Mohamadou Kanté Crawley Town Activo 116 / 119 40% 1 08.03.2027 -
Víctor Guzmán Sporting CP Activo 89 / 104 40% 1 08.03.2027 -
Carlos Vicente Birmingham Activo 145 / 138 40% 1 07.03.2027 -
Kazunari Kita Real Sociedad Activo 92 / 103 67% 1 06.03.2027 Observar
Ilja Tuseev Chelyabinsk Activo 87 / 90 40% 1 03.03.2027 -
Itumeleng Grobler Free State Stars Activo 96 / 104 40% 2 02.03.2027 -
Michael Cooper Sheffield United Activo 137 / 129 40% 3 01.03.2027 -
Zach Hemming Chesterfield Activo 100 / 114 40% 1 01.03.2027 -
Vitor Hugo Lusitânia Lourosa Activo 94 / 101 40% 1 26.02.2027 -
Fran Vieites Walsall Activo 134 / 123 40% 1 26.02.2027 -
Romelle Donovan Brentford Activo 111 / 124 40% 1 24.02.2027 -
Assane Diao Como Activo 141 / 141 40% 1 20.02.2027 -
Yurii-Volodymyr Hereta Rukh Activo 112 / 107 40% 1 18.02.2027 -
Sławomir Abramowicz Jagiellonia Activo 136 / 132 40% 1 17.02.2027 -
Nathan Bishop AFC Wimbledon Activo 108 / 110 40% 2 14.02.2027 -
Othmane Maamma Watford Activo 124 / 123 40% 1 14.02.2027 -
Jacques Gautier Chamois Niortais Activo 110 / 120 40% 1 13.02.2027 -
Samir El Mourabet RC Strasbourg Activo 118 / 124 40% 1 11.02.2027 -
Bernardes Benfica Activo 88 / 109 40% 1 11.02.2027 -
Rivaldo Mkhize Black Aces Activo 61 / 76 40% 1 08.02.2027 -
Mateus Mané Burnley Activo 133 / 142 40% 1 07.02.2027 -
Filip Marschall Stevenage Activo 99 / 118 40% 1 04.02.2027 -
Oswin Appollis Orlando Pirates Activo 101 / 125 40% 1 18.01.2027 -
Sampson Dweh Mallorca Activo 133 / 134 66% 1 01.01.2027 Aprobar
Jefry Zapata Aldosivi Negociando 118 / 118 66% 1 01.01.2027 -
Agustín Medina Lanús Activo 108 / 124 40% 1 20.11.2026 -
Sergi Domínguez Dinamo Zagreb Activo 111 / 121 40% 1 03.11.2026 -
Pedro Bravo FC Midtjylland Activo 131 / 128 40% 1 03.11.2026 -
Ian Garguez Palestino Activo 94 / 120 40% 1 12.10.2026 -
Felipe Faúndez O'Higgins Activo 110 / 111 40% 1 07.10.2026 -
Luis Maturana Independiente Medellin Activo 100 / 94 40% 1 05.10.2026 -
Eric Ramírez Unión de Santa Fe Activo 107 / 113 40% 1 06.08.2026 -